sensor_id;sensor_type;location;lat;lon;timestamp;P1;durP1;ratioP1;P2;durP2;ratioP2
9522;SDS011;63165;43.016;25.784;2023-02-11T00:01:29;204.65;;;40.00;;
9522;SDS011;63165;43.016;25.784;2023-02-11T00:03:59;245.40;;;48.00;;
9522;SDS011;63165;43.016;25.784;2023-02-11T00:06:27;229.73;;;45.80;;
9522;SDS011;63165;43.016;25.784;2023-02-11T00:08:56;203.02;;;41.70;;
9522;SDS011;63165;43.016;25.784;2023-02-11T00:11:24;208.85;;;45.03;;
9522;SDS011;63165;43.016;25.784;2023-02-11T00:13:54;121.55;;;28.08;;
9522;SDS011;63165;43.016;25.784;2023-02-11T00:16:24;59.20;;;14.93;;
9522;SDS011;63165;43.016;25.784;2023-02-11T00:18:51;43.88;;;12.23;;
9522;SDS011;63165;43.016;25.784;2023-02-11T00:21:19;69.72;;;15.50;;
9522;SDS011;63165;43.016;25.784;2023-02-11T00:23:49;46.75;;;13.38;;
9522;SDS011;63165;43.016;25.784;2023-02-11T00:26:17;41.80;;;12.35;;
9522;SDS011;63165;43.016;25.784;2023-02-11T00:28:46;56.53;;;14.73;;
9522;SDS011;63165;43.016;25.784;2023-02-11T00:31:15;63.35;;;15.50;;
9522;SDS011;63165;43.016;25.784;2023-02-11T00:33:45;56.30;;;16.23;;
9522;SDS011;63165;43.016;25.784;2023-02-11T00:36:13;64.10;;;15.10;;
9522;SDS011;63165;43.016;25.784;2023-02-11T00:38:42;55.10;;;14.57;;
9522;SDS011;63165;43.016;25.784;2023-02-11T00:41:10;60.58;;;13.82;;
9522;SDS011;63165;43.016;25.784;2023-02-11T00:43:38;40.05;;;12.90;;
9522;SDS011;63165;43.016;25.784;2023-02-11T00:46:06;36.05;;;11.40;;
9522;SDS011;63165;43.016;25.784;2023-02-11T00:48:34;43.92;;;12.00;;
9522;SDS011;63165;43.016;25.784;2023-02-11T00:51:03;42.92;;;11.15;;
9522;SDS011;63165;43.016;25.784;2023-02-11T00:53:31;47.10;;;11.43;;
9522;SDS011;63165;43.016;25.784;2023-02-11T00:55:59;43.30;;;10.68;;
9522;SDS011;63165;43.016;25.784;2023-02-11T00:58:27;41.40;;;10.40;;
9522;SDS011;63165;43.016;25.784;2023-02-11T01:00:54;34.58;;;9.82;;
9522;SDS011;63165;43.016;25.784;2023-02-11T01:03:22;27.00;;;9.68;;
9522;SDS011;63165;43.016;25.784;2023-02-11T01:05:50;31.75;;;11.25;;
9522;SDS011;63165;43.016;25.784;2023-02-11T01:08:19;32.35;;;9.90;;
9522;SDS011;63165;43.016;25.784;2023-02-11T01:10:52;42.83;;;11.13;;
9522;SDS011;63165;43.016;25.784;2023-02-11T01:13:20;34.33;;;9.80;;
9522;SDS011;63165;43.016;25.784;2023-02-11T01:15:48;43.03;;;11.13;;
9522;SDS011;63165;43.016;25.784;2023-02-11T01:18:15;35.70;;;10.38;;
9522;SDS011;63165;43.016;25.784;2023-02-11T01:20:42;33.03;;;10.02;;
9522;SDS011;63165;43.016;25.784;2023-02-11T01:23:10;34.33;;;10.10;;
9522;SDS011;63165;43.016;25.784;2023-02-11T01:25:40;39.80;;;11.38;;
9522;SDS011;63165;43.016;25.784;2023-02-11T01:28:11;45.92;;;12.88;;
9522;SDS011;63165;43.016;25.784;2023-02-11T01:30:43;46.10;;;11.27;;
9522;SDS011;63165;43.016;25.784;2023-02-11T01:33:10;43.25;;;12.00;;
9522;SDS011;63165;43.016;25.784;2023-02-11T01:35:38;37.35;;;9.50;;
9522;SDS011;63165;43.016;25.784;2023-02-11T01:38:06;35.58;;;10.02;;
9522;SDS011;63165;43.016;25.784;2023-02-11T01:40:34;31.83;;;9.57;;
9522;SDS011;63165;43.016;25.784;2023-02-11T01:43:03;37.85;;;9.55;;
9522;SDS011;63165;43.016;25.784;2023-02-11T01:48:27;38.15;;;11.43;;
9522;SDS011;63165;43.016;25.784;2023-02-11T01:50:58;32.58;;;10.32;;
9522;SDS011;63165;43.016;25.784;2023-02-11T01:53:30;36.78;;;10.73;;
9522;SDS011;63165;43.016;25.784;2023-02-11T01:56:17;36.95;;;10.82;;
9522;SDS011;63165;43.016;25.784;2023-02-11T01:59:06;38.58;;;11.80;;
9522;SDS011;63165;43.016;25.784;2023-02-11T02:01:37;38.30;;;10.73;;
9522;SDS011;63165;43.016;25.784;2023-02-11T02:04:07;42.28;;;11.00;;
9522;SDS011;63165;43.016;25.784;2023-02-11T02:06:39;41.35;;;12.18;;
9522;SDS011;63165;43.016;25.784;2023-02-11T02:09:12;46.70;;;13.23;;
9522;SDS011;63165;43.016;25.784;2023-02-11T02:11:45;45.72;;;13.63;;
9522;SDS011;63165;43.016;25.784;2023-02-11T02:14:14;50.85;;;12.68;;
9522;SDS011;63165;43.016;25.784;2023-02-11T02:16:42;37.72;;;12.32;;
9522;SDS011;63165;43.016;25.784;2023-02-11T02:19:24;42.55;;;10.85;;
9522;SDS011;63165;43.016;25.784;2023-02-11T02:22:25;33.42;;;10.00;;
9522;SDS011;63165;43.016;25.784;2023-02-11T02:28:09;31.77;;;10.48;;
9522;SDS011;63165;43.016;25.784;2023-02-11T02:31:02;39.72;;;10.30;;
9522;SDS011;63165;43.016;25.784;2023-02-11T02:33:46;49.83;;;10.30;;
9522;SDS011;63165;43.016;25.784;2023-02-11T02:36:21;32.92;;;9.80;;
9522;SDS011;63165;43.016;25.784;2023-02-11T02:38:54;35.53;;;10.23;;
9522;SDS011;63165;43.016;25.784;2023-02-11T02:41:26;35.88;;;9.98;;
9522;SDS011;63165;43.016;25.784;2023-02-11T02:43:56;28.05;;;8.60;;
9522;SDS011;63165;43.016;25.784;2023-02-11T02:46:24;36.47;;;9.48;;
9522;SDS011;63165;43.016;25.784;2023-02-11T02:48:54;27.92;;;8.85;;
9522;SDS011;63165;43.016;25.784;2023-02-11T02:51:30;41.40;;;10.95;;
9522;SDS011;63165;43.016;25.784;2023-02-11T02:54:24;35.83;;;11.80;;
9522;SDS011;63165;43.016;25.784;2023-02-11T02:57:00;41.53;;;10.43;;
9522;SDS011;63165;43.016;25.784;2023-02-11T02:59:42;34.63;;;9.52;;
9522;SDS011;63165;43.016;25.784;2023-02-11T03:02:21;41.58;;;11.02;;
9522;SDS011;63165;43.016;25.784;2023-02-11T03:04:56;39.00;;;10.48;;
9522;SDS011;63165;43.016;25.784;2023-02-11T03:07:31;46.60;;;11.82;;
9522;SDS011;63165;43.016;25.784;2023-02-11T03:10:04;51.75;;;11.80;;
9522;SDS011;63165;43.016;25.784;2023-02-11T03:12:36;45.70;;;12.90;;
9522;SDS011;63165;43.016;25.784;2023-02-11T03:15:05;38.10;;;12.32;;
9522;SDS011;63165;43.016;25.784;2023-02-11T03:17:34;41.15;;;11.63;;
9522;SDS011;63165;43.016;25.784;2023-02-11T03:20:08;44.40;;;11.87;;
9522;SDS011;63165;43.016;25.784;2023-02-11T03:22:39;44.05;;;10.90;;
9522;SDS011;63165;43.016;25.784;2023-02-11T03:27:37;29.85;;;10.35;;
9522;SDS011;63165;43.016;25.784;2023-02-11T03:30:13;48.20;;;13.65;;
9522;SDS011;63165;43.016;25.784;2023-02-11T03:32:45;39.95;;;13.00;;
9522;SDS011;63165;43.016;25.784;2023-02-11T03:35:19;47.63;;;12.73;;
9522;SDS011;63165;43.016;25.784;2023-02-11T03:37:48;47.20;;;12.02;;
9522;SDS011;63165;43.016;25.784;2023-02-11T03:40:18;39.47;;;11.90;;
9522;SDS011;63165;43.016;25.784;2023-02-11T03:42:48;47.50;;;11.48;;
9522;SDS011;63165;43.016;25.784;2023-02-11T03:45:20;45.22;;;12.90;;
9522;SDS011;63165;43.016;25.784;2023-02-11T03:47:51;40.83;;;12.50;;
9522;SDS011;63165;43.016;25.784;2023-02-11T03:50:23;45.42;;;13.30;;
9522;SDS011;63165;43.016;25.784;2023-02-11T03:52:52;62.00;;;15.57;;
9522;SDS011;63165;43.016;25.784;2023-02-11T03:55:22;137.35;;;34.10;;
9522;SDS011;63165;43.016;25.784;2023-02-11T03:57:51;62.70;;;17.48;;
9522;SDS011;63165;43.016;25.784;2023-02-11T04:00:19;51.63;;;13.98;;
9522;SDS011;63165;43.016;25.784;2023-02-11T04:02:46;73.70;;;16.98;;
9522;SDS011;63165;43.016;25.784;2023-02-11T04:05:14;60.47;;;15.43;;
9522;SDS011;63165;43.016;25.784;2023-02-11T04:07:43;36.75;;;11.35;;
9522;SDS011;63165;43.016;25.784;2023-02-11T04:10:11;39.47;;;10.77;;
9522;SDS011;63165;43.016;25.784;2023-02-11T04:12:38;33.83;;;10.73;;
9522;SDS011;63165;43.016;25.784;2023-02-11T04:15:06;40.38;;;10.25;;
9522;SDS011;63165;43.016;25.784;2023-02-11T04:17:33;68.75;;;19.60;;
9522;SDS011;63165;43.016;25.784;2023-02-11T04:20:01;65.22;;;17.15;;
9522;SDS011;63165;43.016;25.784;2023-02-11T04:22:29;77.13;;;17.52;;
9522;SDS011;63165;43.016;25.784;2023-02-11T04:24:58;61.60;;;15.45;;
9522;SDS011;63165;43.016;25.784;2023-02-11T04:27:25;102.60;;;24.30;;
9522;SDS011;63165;43.016;25.784;2023-02-11T04:29:52;111.35;;;28.90;;
9522;SDS011;63165;43.016;25.784;2023-02-11T04:32:19;97.05;;;23.33;;
9522;SDS011;63165;43.016;25.784;2023-02-11T04:34:47;121.80;;;26.55;;
9522;SDS011;63165;43.016;25.784;2023-02-11T04:37:14;135.70;;;28.90;;
9522;SDS011;63165;43.016;25.784;2023-02-11T04:39:41;116.68;;;22.45;;
9522;SDS011;63165;43.016;25.784;2023-02-11T04:42:10;76.70;;;15.20;;
9522;SDS011;63165;43.016;25.784;2023-02-11T04:44:38;70.85;;;15.13;;
9522;SDS011;63165;43.016;25.784;2023-02-11T04:47:05;80.30;;;20.30;;
9522;SDS011;63165;43.016;25.784;2023-02-11T04:49:32;71.70;;;19.17;;
9522;SDS011;63165;43.016;25.784;2023-02-11T04:52:00;56.17;;;14.73;;
9522;SDS011;63165;43.016;25.784;2023-02-11T04:54:27;55.05;;;13.52;;
9522;SDS011;63165;43.016;25.784;2023-02-11T04:56:54;41.17;;;10.23;;
9522;SDS011;63165;43.016;25.784;2023-02-11T04:59:23;37.80;;;9.95;;
9522;SDS011;63165;43.016;25.784;2023-02-11T05:01:51;31.50;;;9.07;;
9522;SDS011;63165;43.016;25.784;2023-02-11T05:04:18;34.53;;;9.27;;
9522;SDS011;63165;43.016;25.784;2023-02-11T05:06:45;43.83;;;9.13;;
9522;SDS011;63165;43.016;25.784;2023-02-11T05:09:12;48.88;;;14.27;;
9522;SDS011;63165;43.016;25.784;2023-02-11T05:11:41;34.25;;;11.43;;
9522;SDS011;63165;43.016;25.784;2023-02-11T05:14:08;35.35;;;10.15;;
9522;SDS011;63165;43.016;25.784;2023-02-11T05:16:36;47.33;;;15.68;;
9522;SDS011;63165;43.016;25.784;2023-02-11T05:19:04;40.65;;;12.55;;
9522;SDS011;63165;43.016;25.784;2023-02-11T05:21:31;38.67;;;10.98;;
9522;SDS011;63165;43.016;25.784;2023-02-11T05:23:58;33.05;;;9.75;;
9522;SDS011;63165;43.016;25.784;2023-02-11T05:26:25;41.38;;;11.90;;
9522;SDS011;63165;43.016;25.784;2023-02-11T05:28:52;37.13;;;10.48;;
9522;SDS011;63165;43.016;25.784;2023-02-11T05:31:20;36.35;;;9.55;;
9522;SDS011;63165;43.016;25.784;2023-02-11T05:33:48;42.17;;;12.48;;
9522;SDS011;63165;43.016;25.784;2023-02-11T05:36:16;58.13;;;14.68;;
9522;SDS011;63165;43.016;25.784;2023-02-11T05:38:43;84.53;;;17.80;;
9522;SDS011;63165;43.016;25.784;2023-02-11T05:41:10;80.05;;;21.40;;
9522;SDS011;63165;43.016;25.784;2023-02-11T05:43:38;75.13;;;23.52;;
9522;SDS011;63165;43.016;25.784;2023-02-11T05:46:05;164.38;;;41.47;;
9522;SDS011;63165;43.016;25.784;2023-02-11T05:48:33;135.43;;;33.75;;
9522;SDS011;63165;43.016;25.784;2023-02-11T05:51:02;176.38;;;43.67;;
9522;SDS011;63165;43.016;25.784;2023-02-11T05:53:30;117.22;;;32.63;;
9522;SDS011;63165;43.016;25.784;2023-02-11T05:55:57;133.57;;;34.70;;
9522;SDS011;63165;43.016;25.784;2023-02-11T05:58:24;163.20;;;40.95;;
9522;SDS011;63165;43.016;25.784;2023-02-11T06:00:51;180.70;;;41.92;;
9522;SDS011;63165;43.016;25.784;2023-02-11T06:03:19;136.98;;;34.58;;
9522;SDS011;63165;43.016;25.784;2023-02-11T06:05:46;143.73;;;34.90;;
9522;SDS011;63165;43.016;25.784;2023-02-11T06:08:15;135.18;;;34.65;;
9522;SDS011;63165;43.016;25.784;2023-02-11T06:10:43;139.32;;;34.08;;
9522;SDS011;63165;43.016;25.784;2023-02-11T06:13:10;91.35;;;27.80;;
9522;SDS011;63165;43.016;25.784;2023-02-11T06:15:38;109.45;;;30.67;;
9522;SDS011;63165;43.016;25.784;2023-02-11T06:18:06;107.07;;;32.58;;
9522;SDS011;63165;43.016;25.784;2023-02-11T06:20:34;94.68;;;26.25;;
9522;SDS011;63165;43.016;25.784;2023-02-11T06:23:01;95.28;;;28.30;;
9522;SDS011;63165;43.016;25.784;2023-02-11T06:25:30;90.70;;;26.15;;
9522;SDS011;63165;43.016;25.784;2023-02-11T06:27:57;121.82;;;33.78;;
9522;SDS011;63165;43.016;25.784;2023-02-11T06:30:24;88.95;;;24.77;;
9522;SDS011;63165;43.016;25.784;2023-02-11T06:32:52;66.00;;;18.58;;
9522;SDS011;63165;43.016;25.784;2023-02-11T06:35:19;56.60;;;16.52;;
9522;SDS011;63165;43.016;25.784;2023-02-11T06:37:46;45.90;;;13.73;;
9522;SDS011;63165;43.016;25.784;2023-02-11T06:40:14;38.03;;;12.10;;
9522;SDS011;63165;43.016;25.784;2023-02-11T06:42:43;41.35;;;11.45;;
9522;SDS011;63165;43.016;25.784;2023-02-11T06:45:10;43.38;;;13.85;;
9522;SDS011;63165;43.016;25.784;2023-02-11T06:47:37;48.70;;;12.80;;
9522;SDS011;63165;43.016;25.784;2023-02-11T06:50:06;44.10;;;13.70;;
9522;SDS011;63165;43.016;25.784;2023-02-11T06:52:34;36.22;;;11.15;;
9522;SDS011;63165;43.016;25.784;2023-02-11T06:55:02;34.63;;;10.13;;
9522;SDS011;63165;43.016;25.784;2023-02-11T06:57:29;27.25;;;9.82;;
9522;SDS011;63165;43.016;25.784;2023-02-11T06:59:59;32.70;;;10.27;;
9522;SDS011;63165;43.016;25.784;2023-02-11T07:02:26;33.55;;;10.23;;
9522;SDS011;63165;43.016;25.784;2023-02-11T07:04:53;59.03;;;15.48;;
9522;SDS011;63165;43.016;25.784;2023-02-11T07:07:21;39.15;;;11.98;;
9522;SDS011;63165;43.016;25.784;2023-02-11T07:09:48;91.82;;;27.45;;
9522;SDS011;63165;43.016;25.784;2023-02-11T07:12:15;42.90;;;12.38;;
9522;SDS011;63165;43.016;25.784;2023-02-11T07:14:43;29.92;;;9.00;;
9522;SDS011;63165;43.016;25.784;2023-02-11T07:17:12;19.17;;;7.22;;
9522;SDS011;63165;43.016;25.784;2023-02-11T07:19:39;26.98;;;7.60;;
9522;SDS011;63165;43.016;25.784;2023-02-11T07:22:06;28.63;;;9.52;;
9522;SDS011;63165;43.016;25.784;2023-02-11T07:24:33;36.25;;;9.77;;
9522;SDS011;63165;43.016;25.784;2023-02-11T07:27:01;32.42;;;9.25;;
9522;SDS011;63165;43.016;25.784;2023-02-11T07:29:28;28.80;;;8.52;;
9522;SDS011;63165;43.016;25.784;2023-02-11T07:31:56;38.78;;;11.35;;
9522;SDS011;63165;43.016;25.784;2023-02-11T07:34:25;31.83;;;12.48;;
9522;SDS011;63165;43.016;25.784;2023-02-11T07:36:52;31.40;;;8.48;;
9522;SDS011;63165;43.016;25.784;2023-02-11T07:39:19;33.67;;;8.23;;
9522;SDS011;63165;43.016;25.784;2023-02-11T07:41:46;25.77;;;7.43;;
9522;SDS011;63165;43.016;25.784;2023-02-11T07:44:14;22.33;;;8.00;;
9522;SDS011;63165;43.016;25.784;2023-02-11T07:46:41;33.40;;;8.75;;
9522;SDS011;63165;43.016;25.784;2023-02-11T07:49:09;27.23;;;8.60;;
9522;SDS011;63165;43.016;25.784;2023-02-11T07:51:38;27.42;;;8.93;;
9522;SDS011;63165;43.016;25.784;2023-02-11T07:54:05;32.20;;;8.52;;
9522;SDS011;63165;43.016;25.784;2023-02-11T07:56:33;25.83;;;8.18;;
9522;SDS011;63165;43.016;25.784;2023-02-11T07:59:00;24.38;;;8.02;;
9522;SDS011;63165;43.016;25.784;2023-02-11T08:01:28;24.90;;;7.35;;
9522;SDS011;63165;43.016;25.784;2023-02-11T08:03:57;26.27;;;8.90;;
9522;SDS011;63165;43.016;25.784;2023-02-11T08:06:26;24.67;;;7.72;;
9522;SDS011;63165;43.016;25.784;2023-02-11T08:08:57;22.23;;;7.20;;
9522;SDS011;63165;43.016;25.784;2023-02-11T08:11:29;20.67;;;7.63;;
9522;SDS011;63165;43.016;25.784;2023-02-11T08:13:57;26.92;;;8.40;;
9522;SDS011;63165;43.016;25.784;2023-02-11T08:16:24;23.77;;;7.93;;
9522;SDS011;63165;43.016;25.784;2023-02-11T08:18:54;24.55;;;6.97;;
9522;SDS011;63165;43.016;25.784;2023-02-11T08:21:23;20.92;;;7.28;;
9522;SDS011;63165;43.016;25.784;2023-02-11T08:23:50;28.90;;;8.65;;
9522;SDS011;63165;43.016;25.784;2023-02-11T08:26:20;21.42;;;7.28;;
9522;SDS011;63165;43.016;25.784;2023-02-11T08:28:50;22.67;;;7.65;;
9522;SDS011;63165;43.016;25.784;2023-02-11T08:31:19;23.98;;;7.53;;
9522;SDS011;63165;43.016;25.784;2023-02-11T08:33:47;22.50;;;7.47;;
9522;SDS011;63165;43.016;25.784;2023-02-11T08:36:16;21.67;;;7.70;;
9522;SDS011;63165;43.016;25.784;2023-02-11T08:38:45;27.52;;;9.07;;
9522;SDS011;63165;43.016;25.784;2023-02-11T08:41:13;25.95;;;8.90;;
9522;SDS011;63165;43.016;25.784;2023-02-11T08:43:42;27.38;;;7.95;;
9522;SDS011;63165;43.016;25.784;2023-02-11T08:46:11;24.27;;;9.02;;
9522;SDS011;63165;43.016;25.784;2023-02-11T08:48:39;25.65;;;7.57;;
9522;SDS011;63165;43.016;25.784;2023-02-11T08:51:07;29.35;;;9.45;;
9522;SDS011;63165;43.016;25.784;2023-02-11T08:53:35;32.53;;;8.45;;
9522;SDS011;63165;43.016;25.784;2023-02-11T08:56:02;29.40;;;9.65;;
9522;SDS011;63165;43.016;25.784;2023-02-11T08:58:30;29.80;;;9.02;;
9522;SDS011;63165;43.016;25.784;2023-02-11T09:01:00;24.83;;;7.25;;
9522;SDS011;63165;43.016;25.784;2023-02-11T09:03:27;25.55;;;7.85;;
9522;SDS011;63165;43.016;25.784;2023-02-11T09:05:55;24.02;;;7.95;;
9522;SDS011;63165;43.016;25.784;2023-02-11T09:08:22;35.40;;;8.77;;
9522;SDS011;63165;43.016;25.784;2023-02-11T09:10:50;20.73;;;7.32;;
9522;SDS011;63165;43.016;25.784;2023-02-11T09:13:17;22.50;;;8.10;;
9522;SDS011;63165;43.016;25.784;2023-02-11T09:15:44;28.25;;;9.02;;
9522;SDS011;63165;43.016;25.784;2023-02-11T09:18:13;32.83;;;9.93;;
9522;SDS011;63165;43.016;25.784;2023-02-11T09:20:41;42.42;;;12.40;;
9522;SDS011;63165;43.016;25.784;2023-02-11T09:23:08;41.70;;;12.95;;
9522;SDS011;63165;43.016;25.784;2023-02-11T09:25:37;37.03;;;11.48;;
9522;SDS011;63165;43.016;25.784;2023-02-11T09:28:05;43.92;;;13.23;;
9522;SDS011;63165;43.016;25.784;2023-02-11T09:30:33;32.28;;;10.93;;
9522;SDS011;63165;43.016;25.784;2023-02-11T09:33:02;28.85;;;9.48;;
9522;SDS011;63165;43.016;25.784;2023-02-11T09:35:31;24.33;;;8.60;;
9522;SDS011;63165;43.016;25.784;2023-02-11T09:37:59;35.13;;;10.15;;
9522;SDS011;63165;43.016;25.784;2023-02-11T09:40:26;30.92;;;10.77;;
9522;SDS011;63165;43.016;25.784;2023-02-11T09:42:55;37.60;;;10.88;;
9522;SDS011;63165;43.016;25.784;2023-02-11T09:45:28;33.85;;;12.43;;
9522;SDS011;63165;43.016;25.784;2023-02-11T09:47:57;39.70;;;11.85;;
9522;SDS011;63165;43.016;25.784;2023-02-11T09:50:28;38.17;;;12.70;;
9522;SDS011;63165;43.016;25.784;2023-02-11T09:53:00;31.17;;;9.70;;
9522;SDS011;63165;43.016;25.784;2023-02-11T09:55:30;39.63;;;11.55;;
9522;SDS011;63165;43.016;25.784;2023-02-11T09:58:02;39.22;;;12.23;;
9522;SDS011;63165;43.016;25.784;2023-02-11T10:00:33;32.90;;;11.95;;
9522;SDS011;63165;43.016;25.784;2023-02-11T10:03:13;38.58;;;11.80;;
9522;SDS011;63165;43.016;25.784;2023-02-11T10:11:25;34.65;;;12.45;;
9522;SDS011;63165;43.016;25.784;2023-02-11T10:14:06;42.03;;;10.73;;
9522;SDS011;63165;43.016;25.784;2023-02-11T10:16:47;31.27;;;10.43;;
9522;SDS011;63165;43.016;25.784;2023-02-11T10:19:29;36.90;;;10.85;;
9522;SDS011;63165;43.016;25.784;2023-02-11T10:22:11;34.05;;;10.35;;
9522;SDS011;63165;43.016;25.784;2023-02-11T10:24:47;44.15;;;13.48;;
9522;SDS011;63165;43.016;25.784;2023-02-11T10:27:20;37.10;;;11.32;;
9522;SDS011;63165;43.016;25.784;2023-02-11T10:29:53;37.03;;;11.40;;
9522;SDS011;63165;43.016;25.784;2023-02-11T10:32:28;39.30;;;12.18;;
9522;SDS011;63165;43.016;25.784;2023-02-11T10:35:01;42.90;;;15.10;;
9522;SDS011;63165;43.016;25.784;2023-02-11T10:37:37;38.60;;;11.30;;
9522;SDS011;63165;43.016;25.784;2023-02-11T10:40:05;38.58;;;10.40;;
9522;SDS011;63165;43.016;25.784;2023-02-11T10:42:38;35.97;;;11.35;;
9522;SDS011;63165;43.016;25.784;2023-02-11T10:45:09;51.10;;;19.77;;
9522;SDS011;63165;43.016;25.784;2023-02-11T10:47:43;39.78;;;12.75;;
9522;SDS011;63165;43.016;25.784;2023-02-11T10:50:18;36.13;;;14.70;;
9522;SDS011;63165;43.016;25.784;2023-02-11T10:52:47;50.90;;;16.55;;
9522;SDS011;63165;43.016;25.784;2023-02-11T10:55:15;27.05;;;9.85;;
9522;SDS011;63165;43.016;25.784;2023-02-11T10:57:49;34.42;;;11.68;;
9522;SDS011;63165;43.016;25.784;2023-02-11T11:00:22;39.50;;;12.32;;
9522;SDS011;63165;43.016;25.784;2023-02-11T11:02:59;48.50;;;14.25;;
9522;SDS011;63165;43.016;25.784;2023-02-11T11:05:30;39.65;;;12.15;;
9522;SDS011;63165;43.016;25.784;2023-02-11T11:08:01;44.10;;;12.70;;
9522;SDS011;63165;43.016;25.784;2023-02-11T11:10:35;42.30;;;12.43;;
9522;SDS011;63165;43.016;25.784;2023-02-11T11:13:23;29.95;;;10.60;;
9522;SDS011;63165;43.016;25.784;2023-02-11T11:18:43;32.70;;;9.63;;
9522;SDS011;63165;43.016;25.784;2023-02-11T11:21:14;30.98;;;9.75;;
9522;SDS011;63165;43.016;25.784;2023-02-11T11:23:56;25.65;;;10.23;;
9522;SDS011;63165;43.016;25.784;2023-02-11T11:26:25;37.20;;;11.32;;
9522;SDS011;63165;43.016;25.784;2023-02-11T11:28:55;38.40;;;10.48;;
9522;SDS011;63165;43.016;25.784;2023-02-11T11:31:27;25.30;;;8.75;;
9522;SDS011;63165;43.016;25.784;2023-02-11T11:33:58;28.90;;;9.65;;
9522;SDS011;63165;43.016;25.784;2023-02-11T11:36:31;41.33;;;13.13;;
9522;SDS011;63165;43.016;25.784;2023-02-11T11:39:13;32.95;;;10.63;;
9522;SDS011;63165;43.016;25.784;2023-02-11T11:41:51;33.65;;;10.80;;
9522;SDS011;63165;43.016;25.784;2023-02-11T11:44:29;37.42;;;11.55;;
9522;SDS011;63165;43.016;25.784;2023-02-11T11:49:50;41.17;;;12.70;;
9522;SDS011;63165;43.016;25.784;2023-02-11T11:52:39;48.88;;;15.63;;
9522;SDS011;63165;43.016;25.784;2023-02-11T11:55:15;141.48;;;47.75;;
9522;SDS011;63165;43.016;25.784;2023-02-11T11:57:45;49.72;;;14.77;;
9522;SDS011;63165;43.016;25.784;2023-02-11T12:00:14;111.15;;;41.40;;
9522;SDS011;63165;43.016;25.784;2023-02-11T12:05:45;39.88;;;12.13;;
9522;SDS011;63165;43.016;25.784;2023-02-11T12:08:26;28.95;;;10.10;;
9522;SDS011;63165;43.016;25.784;2023-02-11T12:11:08;28.70;;;10.27;;
9522;SDS011;63165;43.016;25.784;2023-02-11T12:13:45;61.72;;;26.05;;
9522;SDS011;63165;43.016;25.784;2023-02-11T12:16:33;58.75;;;22.05;;
9522;SDS011;63165;43.016;25.784;2023-02-11T12:22:20;66.55;;;21.55;;
9522;SDS011;63165;43.016;25.784;2023-02-11T12:24:57;62.75;;;21.52;;
9522;SDS011;63165;43.016;25.784;2023-02-11T12:27:37;42.40;;;14.07;;
9522;SDS011;63165;43.016;25.784;2023-02-11T12:30:15;43.63;;;15.32;;
9522;SDS011;63165;43.016;25.784;2023-02-11T12:32:51;54.20;;;15.90;;
9522;SDS011;63165;43.016;25.784;2023-02-11T12:35:30;45.08;;;15.48;;
9522;SDS011;63165;43.016;25.784;2023-02-11T12:38:10;43.47;;;14.05;;
9522;SDS011;63165;43.016;25.784;2023-02-11T12:40:59;42.08;;;14.43;;
9522;SDS011;63165;43.016;25.784;2023-02-11T12:43:42;44.08;;;17.33;;
9522;SDS011;63165;43.016;25.784;2023-02-11T12:49:06;41.70;;;13.90;;
9522;SDS011;63165;43.016;25.784;2023-02-11T12:51:52;40.75;;;13.48;;
9522;SDS011;63165;43.016;25.784;2023-02-11T12:54:29;41.25;;;14.18;;
9522;SDS011;63165;43.016;25.784;2023-02-11T12:57:05;39.45;;;12.55;;
9522;SDS011;63165;43.016;25.784;2023-02-11T12:59:44;38.97;;;12.40;;
9522;SDS011;63165;43.016;25.784;2023-02-11T13:02:21;82.03;;;25.87;;
9522;SDS011;63165;43.016;25.784;2023-02-11T13:04:56;49.17;;;17.33;;
9522;SDS011;63165;43.016;25.784;2023-02-11T13:07:28;42.13;;;12.38;;
9522;SDS011;63165;43.016;25.784;2023-02-11T13:10:01;53.28;;;15.75;;
9522;SDS011;63165;43.016;25.784;2023-02-11T13:12:33;38.97;;;13.25;;
9522;SDS011;63165;43.016;25.784;2023-02-11T13:15:21;105.60;;;30.88;;
9522;SDS011;63165;43.016;25.784;2023-02-11T13:17:52;37.97;;;12.45;;
9522;SDS011;63165;43.016;25.784;2023-02-11T13:20:27;291.42;;;74.07;;
9522;SDS011;63165;43.016;25.784;2023-02-11T13:23:02;295.90;;;74.97;;
9522;SDS011;63165;43.016;25.784;2023-02-11T13:25:39;57.85;;;18.90;;
9522;SDS011;63165;43.016;25.784;2023-02-11T13:28:18;43.15;;;13.15;;
9522;SDS011;63165;43.016;25.784;2023-02-11T13:30:53;48.80;;;14.13;;
9522;SDS011;63165;43.016;25.784;2023-02-11T13:33:30;44.17;;;13.18;;
9522;SDS011;63165;43.016;25.784;2023-02-11T13:36:11;45.05;;;12.82;;
9522;SDS011;63165;43.016;25.784;2023-02-11T13:38:42;46.45;;;14.00;;
9522;SDS011;63165;43.016;25.784;2023-02-11T13:41:24;35.55;;;11.27;;
9522;SDS011;63165;43.016;25.784;2023-02-11T13:44:04;29.33;;;10.57;;
9522;SDS011;63165;43.016;25.784;2023-02-11T13:46:54;30.35;;;10.15;;
9522;SDS011;63165;43.016;25.784;2023-02-11T13:49:25;34.13;;;11.40;;
9522;SDS011;63165;43.016;25.784;2023-02-11T13:51:57;34.60;;;11.10;;
9522;SDS011;63165;43.016;25.784;2023-02-11T13:54:30;56.28;;;19.15;;
9522;SDS011;63165;43.016;25.784;2023-02-11T13:59:55;92.10;;;29.52;;
9522;SDS011;63165;43.016;25.784;2023-02-11T14:02:37;46.83;;;14.82;;
9522;SDS011;63165;43.016;25.784;2023-02-11T14:05:28;34.05;;;12.23;;
9522;SDS011;63165;43.016;25.784;2023-02-11T14:08:20;47.28;;;13.73;;
9522;SDS011;63165;43.016;25.784;2023-02-11T14:11:07;41.45;;;13.68;;
9522;SDS011;63165;43.016;25.784;2023-02-11T14:19:46;40.10;;;14.32;;
9522;SDS011;63165;43.016;25.784;2023-02-11T14:22:15;52.55;;;18.73;;
9522;SDS011;63165;43.016;25.784;2023-02-11T14:24:46;55.50;;;19.80;;
9522;SDS011;63165;43.016;25.784;2023-02-11T14:27:23;34.63;;;12.38;;
9522;SDS011;63165;43.016;25.784;2023-02-11T14:33:17;32.55;;;10.68;;
9522;SDS011;63165;43.016;25.784;2023-02-11T14:36:04;41.83;;;13.48;;
9522;SDS011;63165;43.016;25.784;2023-02-11T14:38:44;38.00;;;13.38;;
9522;SDS011;63165;43.016;25.784;2023-02-11T14:41:21;33.25;;;10.60;;
9522;SDS011;63165;43.016;25.784;2023-02-11T14:43:50;33.75;;;10.80;;
9522;SDS011;63165;43.016;25.784;2023-02-11T14:46:22;33.10;;;10.55;;
9522;SDS011;63165;43.016;25.784;2023-02-11T14:48:52;36.60;;;14.10;;
9522;SDS011;63165;43.016;25.784;2023-02-11T14:51:24;32.95;;;11.68;;
9522;SDS011;63165;43.016;25.784;2023-02-11T14:53:56;30.17;;;8.82;;
9522;SDS011;63165;43.016;25.784;2023-02-11T14:56:27;33.80;;;11.20;;
9522;SDS011;63165;43.016;25.784;2023-02-11T14:58:59;33.53;;;10.90;;
9522;SDS011;63165;43.016;25.784;2023-02-11T15:01:29;40.05;;;12.30;;
9522;SDS011;63165;43.016;25.784;2023-02-11T15:03:59;37.30;;;11.90;;
9522;SDS011;63165;43.016;25.784;2023-02-11T15:06:29;39.67;;;11.32;;
9522;SDS011;63165;43.016;25.784;2023-02-11T15:08:59;38.55;;;12.05;;
9522;SDS011;63165;43.016;25.784;2023-02-11T15:11:31;47.47;;;13.45;;
9522;SDS011;63165;43.016;25.784;2023-02-11T15:14:05;89.65;;;24.48;;
9522;SDS011;63165;43.016;25.784;2023-02-11T15:16:39;58.88;;;19.05;;
9522;SDS011;63165;43.016;25.784;2023-02-11T15:19:14;70.47;;;19.10;;
9522;SDS011;63165;43.016;25.784;2023-02-11T15:21:48;64.28;;;18.05;;
9522;SDS011;63165;43.016;25.784;2023-02-11T15:24:23;59.50;;;16.98;;
9522;SDS011;63165;43.016;25.784;2023-02-11T15:26:55;52.80;;;15.52;;
9522;SDS011;63165;43.016;25.784;2023-02-11T15:29:23;44.10;;;14.50;;